Time;durP1;ratioP1;P1;durP2;ratioP2;P2;SDS_P1;SDS_P2;PMS_P1;PMS_P2;Temp;Humidity;BMP_temperature;BMP_pressure;BME280_temperature;BME280_humidity;BME280_pressure;Samples;Min_cycle;Max_cycle;Signal;HPM_P1;HPM_P2
2022/12/20 00:01:33;;;;;;;9.80;2.38;;;;;;;6.53;56.90;101185.94;4915922;29;20039;-75
2022/12/20 00:04:02;;;;;;;3.67;2.13;;;;;;;6.97;54.99;101171.25;4913561;29;20378;-75
2022/12/20 00:06:28;;;;;;;4.40;2.33;;;;;;;6.68;56.34;101175.28;4916944;29;20106;-74
2022/12/20 00:08:55;;;;;;;3.42;1.98;;;;;;;6.58;56.30;101160.75;4914044;29;20036;-74
2022/12/20 00:11:21;;;;;;;5.95;1.70;;;;;;;6.52;56.15;101161.72;4911910;29;20444;-75
2022/12/20 00:13:47;;;;;;;10.95;2.60;;;;;;;6.31;57.30;101175.94;4896352;29;20426;-74
2022/12/20 00:16:18;;;;;;;8.73;2.53;;;;;;;6.78;55.48;101165.59;4918058;29;20337;-74
2022/12/20 00:18:44;;;;;;;4.35;2.03;;;;;;;6.57;56.39;101149.50;4913768;28;20500;-74
2022/12/20 00:21:12;;;;;;;5.85;2.10;;;;;;;6.58;56.08;101163.34;4900120;29;20134;-74
2022/12/20 00:23:39;;;;;;;3.30;1.77;;;;;;;6.10;57.01;101153.75;4908207;29;20066;-74
2022/12/20 00:26:11;;;;;;;3.80;1.88;;;;;;;6.65;56.14;101159.75;4914375;29;20037;-73
2022/12/20 00:28:38;;;;;;;9.93;2.10;;;;;;;6.50;56.42;101148.75;4912839;28;20031;-72
2022/12/20 00:31:05;;;;;;;5.15;1.65;;;;;;;6.93;55.38;101151.41;4929270;28;20039;-73
2022/12/20 00:33:33;;;;;;;2.22;1.13;;;;;;;6.70;55.58;101150.13;4913920;28;20051;-73
2022/12/20 00:36:00;;;;;;;4.63;1.83;;;;;;;6.38;56.58;101148.16;4914441;29;20038;-76
2022/12/20 00:38:28;;;;;;;4.05;2.22;;;;;;;6.93;55.17;101152.25;4901723;28;20290;-75
2022/12/20 00:41:06;;;;;;;2.50;1.63;;;;;;;7.12;54.65;101152.75;4914536;29;20032;-74
2022/12/20 00:43:32;;;;;;;4.55;2.00;;;;;;;6.23;57.60;101144.03;4914072;28;20523;-73
2022/12/20 00:45:58;;;;;;;6.13;2.40;;;;;;;6.25;57.57;101156.09;4913339;29;20300;-74
2022/12/20 00:48:25;;;;;;;2.85;1.73;;;;;;;6.70;56.57;101145.78;4911177;28;20241;-75
2022/12/20 00:50:51;;;;;;;5.53;1.23;;;;;;;6.97;55.93;101142.66;4913938;29;20428;-75
2022/12/20 00:53:16;;;;;;;2.58;1.35;;;;;;;6.79;56.21;101134.34;4879194;29;20048;-76
2022/12/20 00:55:45;;;;;;;6.07;2.13;;;;;;;6.93;55.95;101141.88;4879528;29;20043;-76
2022/12/20 00:58:12;;;;;;;5.15;1.98;;;;;;;6.72;56.53;101127.56;4910127;28;20082;-76
2022/12/20 01:00:38;;;;;;;6.05;1.33;;;;;;;6.96;55.74;101122.78;4913032;29;20118;-75
2022/12/20 01:03:05;;;;;;;2.88;1.52;;;;;;;6.74;56.82;101123.22;4914172;28;20496;-75
2022/12/20 01:05:33;;;;;;;4.57;1.88;;;;;;;6.44;57.72;101128.13;4914878;29;20431;-75
2022/12/20 01:07:59;;;;;;;3.28;2.00;;;;;;;6.79;56.58;101136.09;4900634;28;20198;-76
2022/12/20 01:10:25;;;;;;;4.35;1.77;;;;;;;6.99;56.05;101146.09;4915493;29;20035;-75
2022/12/20 01:12:51;;;;;;;2.42;1.42;;;;;;;6.84;56.47;101137.72;4903283;29;20047;-75
2022/12/20 01:15:16;;;;;;;4.05;1.60;;;;;;;6.84;56.32;101132.53;4910542;29;20044;-76
2022/12/20 01:17:42;;;;;;;2.10;1.33;;;;;;;6.38;57.06;101136.00;4916841;28;20413;-76
2022/12/20 01:20:08;;;;;;;4.40;1.73;;;;;;;6.50;56.75;101142.72;4899446;29;20035;-76
2022/12/20 01:22:34;;;;;;;3.70;2.20;;;;;;;6.82;55.80;101152.50;4911585;28;20485;-75
2022/12/20 01:24:59;;;;;;;2.80;1.90;;;;;;;6.55;56.81;101145.22;4914451;29;20126;-76
2022/12/20 01:27:25;;;;;;;3.17;1.20;;;;;;;6.27;57.04;101145.69;4912759;29;20602;-75
2022/12/20 01:29:51;;;;;;;6.38;2.25;;;;;;;6.73;55.61;101150.09;4913301;29;20032;-75
2022/12/20 01:32:16;;;;;;;2.60;1.55;;;;;;;6.96;55.18;101156.56;4911402;29;20051;-75
2022/12/20 01:34:42;;;;;;;4.85;2.30;;;;;;;6.78;55.61;101132.66;4913201;29;20417;-75
2022/12/20 01:37:07;;;;;;;3.47;2.08;;;;;;;6.74;55.42;101141.38;4893125;29;20418;-76
2022/12/20 01:39:33;;;;;;;2.35;1.30;;;;;;;6.57;56.16;101140.84;4882479;29;20032;-75
2022/12/20 01:42:00;;;;;;;2.33;1.35;;;;;;;6.90;55.06;101137.59;4915050;28;20048;-77
2022/12/20 01:44:26;;;;;;;2.33;0.95;;;;;;;6.78;55.26;101131.81;4895532;29;20039;-76
2022/12/20 01:46:52;;;;;;;3.40;1.40;;;;;;;6.67;55.33;101130.25;4908710;28;20043;-76
2022/12/20 01:49:25;;;;;;;3.40;0.90;;;;;;;6.66;55.46;101120.78;4908919;29;20418;-76
2022/12/20 01:52:08;;;;;;;2.33;1.23;;;;;;;6.86;54.95;101130.78;4910158;28;20414;-76
2022/12/20 01:54:56;;;;;;;3.58;1.20;;;;;;;6.95;54.85;101118.44;4909910;29;20038;-76
2022/12/20 01:57:28;;;;;;;4.18;1.88;;;;;;;6.99;54.66;101120.09;4910181;29;20048;-77
2022/12/20 01:59:55;;;;;;;6.80;1.63;;;;;;;7.04;54.63;101118.25;4895372;29;20035;-71
2022/12/20 02:02:20;;;;;;;3.28;1.45;;;;;;;6.54;55.92;101104.56;4908045;28;20500;-72
2022/12/20 02:04:46;;;;;;;2.63;1.80;;;;;;;6.40;56.19;101115.22;4907587;29;20035;-72
2022/12/20 02:07:19;;;;;;;2.25;1.20;;;;;;;7.53;53.25;101112.84;4904275;28;20071;-71
2022/12/20 02:09:48;;;;;;;3.38;1.30;;;;;;;6.98;54.23;101110.59;4889037;29;20043;-72
2022/12/20 02:12:18;;;;;;;4.00;1.48;;;;;;;7.15;54.38;101111.06;4895452;29;20055;-72
2022/12/20 02:15:25;;;;;;;3.10;1.25;;;;;;;6.94;54.69;101116.75;4907951;29;20046;-72
2022/12/20 02:18:38;;;;;;;4.03;1.25;;;;;;;7.07;54.56;101111.25;4852004;29;20595;-72
2022/12/20 02:21:12;;;;;;;2.70;0.80;;;;;;;7.27;53.70;101107.38;4890018;29;20373;-72
2022/12/20 02:24:19;;;;;;;6.18;1.20;;;;;;;7.10;54.25;101092.97;4888545;29;20052;-73
2022/12/20 02:27:00;;;;;;;2.80;1.13;;;;;;;7.01;54.78;101097.53;4875591;29;20665;-72
2022/12/20 02:29:58;;;;;;;4.28;1.73;;;;;;;7.17;54.24;101093.72;4908210;29;20036;-72
2022/12/20 02:32:30;;;;;;;3.75;0.80;;;;;;;7.16;54.26;101101.56;4895161;28;20559;-74
2022/12/20 02:34:55;;;;;;;;;;;;;;;7.17;53.75;101085.91;4909762;29;20097;-74
2022/12/20 02:37:23;;;;;;;4.25;1.10;;;;;;;7.23;53.81;101072.78;4930139;28;19930;-73
2022/12/20 02:39:49;;;;;;;2.30;0.88;;;;;;;6.78;55.06;101077.25;4904535;29;20039;-74
2022/12/20 02:42:20;;;;;;;5.85;1.48;;;;;;;7.51;52.94;101082.53;4886100;29;20086;-74
2022/12/20 02:47:44;;;;;;;2.92;0.82;;;;;;;7.49;53.01;101073.94;4901598;29;20032;-72
2022/12/20 02:50:11;;;;;;;4.40;1.42;;;;;;;7.39;53.47;101075.03;4914727;29;20134;-71
2022/12/20 02:52:38;;;;;;;3.85;1.00;;;;;;;6.85;54.86;101081.41;4910026;28;20039;-70
2022/12/20 02:55:05;;;;;;;4.28;1.45;;;;;;;7.25;54.36;101075.34;4910211;29;20043;-69
2022/12/20 02:57:46;;;;;;;4.90;1.35;;;;;;;7.15;54.43;101069.50;4910173;28;20436;-69
2022/12/20 03:00:15;;;;;;;2.08;0.70;;;;;;;7.25;54.54;101076.19;4912983;29;20031;-69
2022/12/20 03:05:28;;;;;;;1.92;1.15;;;;;;;7.45;53.70;101074.88;4912146;29;20793;-70
2022/12/20 03:07:54;;;;;;;5.57;1.05;;;;;;;7.19;54.63;101071.13;4896996;29;20043;-70
2022/12/20 03:10:22;;;;;;;2.13;0.93;;;;;;;7.62;53.43;101074.50;4913467;29;20040;-69
2022/12/20 03:15:46;;;;;;;2.08;1.20;;;;;;;7.64;53.49;101057.13;4910565;29;20034;-70
2022/12/20 03:18:11;;;;;;;2.38;0.88;;;;;;;7.70;53.72;101057.81;4913504;29;20139;-69
2022/12/20 03:20:37;;;;;;;3.10;1.33;;;;;;;7.70;53.63;101065.63;4894478;29;20097;-68
2022/12/20 03:23:03;;;;;;;1.40;1.02;;;;;;;7.51;54.44;101062.59;4943299;28;20040;-69
2022/12/20 03:25:28;;;;;;;3.67;1.15;;;;;;;7.32;54.55;101062.16;4911678;29;20421;-69
2022/12/20 03:27:55;;;;;;;1.80;1.23;;;;;;;7.21;55.14;101056.34;4910871;29;20035;-69
2022/12/20 03:30:23;;;;;;;3.45;1.25;;;;;;;7.22;54.84;101060.69;4928332;28;20067;-69
2022/12/20 03:32:49;;;;;;;2.70;1.15;;;;;;;6.85;55.55;101045.06;4893031;29;20131;-69
2022/12/20 03:35:14;;;;;;;1.83;0.82;;;;;;;7.28;53.95;101050.13;4912746;29;20062;-69
2022/12/20 03:37:40;;;;;;;2.10;0.80;;;;;;;7.38;53.90;101055.97;4907146;29;20047;-70
2022/12/20 03:40:08;;;;;;;6.25;0.82;;;;;;;6.97;55.28;101060.34;4914197;29;20738;-69
2022/12/20 03:42:33;;;;;;;3.03;1.08;;;;;;;7.18;55.03;101064.25;4909423;28;20091;-69
2022/12/20 03:44:59;;;;;;;2.35;1.17;;;;;;;7.22;54.75;101052.88;4909800;29;20045;-70
2022/12/20 03:47:27;;;;;;;2.83;1.35;;;;;;;7.38;54.44;101055.97;4903170;28;20048;-72
2022/12/20 03:49:54;;;;;;;5.03;1.00;;;;;;;7.54;53.95;101051.25;4878485;29;20039;-73
2022/12/20 03:52:20;;;;;;;2.30;0.95;;;;;;;7.05;55.19;101062.81;4899005;28;20044;-72
2022/12/20 03:54:46;;;;;;;1.45;0.60;;;;;;;6.98;55.70;101061.25;4910780;29;20035;-71
2022/12/20 03:57:15;;;;;;;4.30;1.25;;;;;;;6.90;56.48;101064.84;4905992;29;20682;-72
2022/12/20 03:59:42;;;;;;;5.07;1.50;;;;;;;7.09;56.02;101064.44;4897040;29;20066;-76
2022/12/20 04:02:10;;;;;;;1.85;1.00;;;;;;;7.08;56.22;101060.97;4909059;29;20073;-77
2022/12/20 04:04:35;;;;;;;6.13;1.20;;;;;;;6.88;56.95;101057.97;4879079;29;20119;-77
2022/12/20 04:07:01;;;;;;;1.55;0.90;;;;;;;7.21;56.01;101058.13;4899684;29;20040;-76
2022/12/20 04:09:27;;;;;;;6.57;1.60;;;;;;;7.07;56.54;101045.44;4898348;29;20155;-75
2022/12/20 04:11:58;;;;;;;4.07;1.08;;;;;;;7.00;56.82;101059.44;4904847;28;20032;-82
2022/12/20 04:14:23;;;;;;;4.20;1.50;;;;;;;7.04;57.17;101041.16;4907425;29;20082;-80
2022/12/20 04:16:49;;;;;;;4.65;1.00;;;;;;;7.39;56.09;101038.63;4900073;28;20052;-81
2022/12/20 04:19:15;;;;;;;7.30;1.50;;;;;;;7.26;56.56;101041.50;4909339;29;20142;-74
2022/12/20 04:21:44;;;;;;;3.30;1.00;;;;;;;6.82;58.22;101045.09;4911983;29;20040;-81
2022/12/20 04:24:11;;;;;;;3.72;0.95;;;;;;;7.02;57.54;101026.47;4918881;29;20120;-80
2022/12/20 04:26:49;;;;;;;3.35;1.08;;;;;;;7.29;56.98;101031.03;4906650;28;20387;-80
2022/12/20 04:29:16;;;;;;;3.58;1.15;;;;;;;6.54;58.79;101018.88;4918197;29;20043;-78
2022/12/20 04:31:42;;;;;;;1.67;0.88;;;;;;;7.02;57.52;101026.47;4914528;28;20093;-80
2022/12/20 04:34:08;;;;;;;4.28;1.60;;;;;;;7.06;57.31;101022.91;4918005;29;20031;-69
2022/12/20 04:36:34;;;;;;;3.88;0.98;;;;;;;6.77;58.48;101020.97;4909480;28;22796;-73
2022/12/20 04:39:03;;;;;;;2.85;1.10;;;;;;;7.05;57.44;101013.41;4912169;29;20244;-76
2022/12/20 04:41:37;;;;;;;2.03;0.93;;;;;;;6.64;58.84;101025.56;4908146;28;20063;-77
2022/12/20 04:44:08;;;;;;;1.77;1.00;;;;;;;7.28;57.05;101018.91;4926730;29;20119;-77
2022/12/20 04:46:36;;;;;;;1.55;0.95;;;;;;;6.75;58.71;101022.75;4896861;28;20036;-77
2022/12/20 04:49:04;;;;;;;4.53;1.20;;;;;;;7.17;57.41;101009.66;4912860;29;20039;-76
2022/12/20 04:51:32;;;;;;;6.88;1.73;;;;;;;7.05;57.52;101010.81;4910799;29;20046;-73
2022/12/20 04:53:58;;;;;;;2.10;1.20;;;;;;;6.89;58.30;101031.97;4925411;29;20067;-72
2022/12/20 04:56:32;;;;;;;4.82;1.13;;;;;;;6.78;58.64;101017.50;4909364;28;20039;-73
2022/12/20 04:59:04;;;;;;;3.22;0.95;;;;;;;6.88;58.12;101014.63;4907993;29;20716;-73
2022/12/20 05:01:29;;;;;;;2.78;0.90;;;;;;;6.82;58.43;101009.59;4910126;28;20043;-72
2022/12/20 05:03:55;;;;;;;2.70;1.25;;;;;;;6.58;59.51;101015.31;4924597;29;20476;-73
2022/12/20 05:06:21;;;;;;;5.18;1.50;;;;;;;6.50;59.61;101011.13;4912051;29;20039;-71
2022/12/20 05:08:47;;;;;;;3.03;1.40;;;;;;;6.75;58.30;101012.34;4906258;29;20595;-73
2022/12/20 05:11:13;;;;;;;3.65;1.80;;;;;;;6.68;58.42;101012.47;4889076;29;20643;-72
2022/12/20 05:13:38;;;;;;;2.65;1.20;;;;;;;6.76;58.38;101008.88;4906359;29;20040;-72
2022/12/20 05:16:07;;;;;;;2.10;1.08;;;;;;;6.72;58.61;101002.03;4896337;29;20154;-72
2022/12/20 05:18:33;;;;;;;3.65;1.35;;;;;;;6.27;60.42;101016.75;4877793;29;20052;-70
2022/12/20 05:26:47;;;;;;;2.97;1.10;;;;;;;6.29;60.00;101014.19;4908787;28;20039;-71
2022/12/20 05:29:15;;;;;;;7.00;1.33;;;;;;;6.51;59.73;101009.41;4909289;29;20063;-71
2022/12/20 05:31:41;;;;;;;3.90;1.50;;;;;;;6.02;60.90;101020.72;4891612;28;20130;-71
2022/12/20 05:34:07;;;;;;;2.72;0.73;;;;;;;6.63;59.50;101008.28;4890034;29;20055;-70
2022/12/20 05:36:35;;;;;;;2.25;1.25;;;;;;;6.86;58.89;101000.84;4884261;28;20572;-71
2022/12/20 05:39:03;;;;;;;3.42;1.50;;;;;;;6.76;58.87;101003.69;4906540;29;20035;-70
2022/12/20 05:41:28;;;;;;;3.40;1.38;;;;;;;6.98;58.38;101004.06;4889902;29;20060;-70
2022/12/20 05:43:54;;;;;;;4.55;1.92;;;;;;;6.79;59.05;101001.84;4890184;29;20055;-72
2022/12/20 05:46:20;;;;;;;1.85;1.02;;;;;;;6.84;58.87;100987.03;4893128;29;20116;-73
2022/12/20 05:48:59;;;;;;;3.17;1.20;;;;;;;6.29;61.10;100985.63;4910084;29;20198;-72
2022/12/20 05:51:25;;;;;;;6.03;1.85;;;;;;;6.66;59.72;101003.00;4911927;29;20697;-75
2022/12/20 05:53:56;;;;;;;4.75;1.35;;;;;;;6.09;61.45;100997.22;4914244;29;21233;-70
2022/12/20 05:56:34;;;;;;;4.05;1.30;;;;;;;6.63;59.69;100996.16;4914769;28;20047;-76
2022/12/20 05:59:00;;;;;;;7.28;1.70;;;;;;;6.80;58.81;101000.97;4902078;29;20032;-75
2022/12/20 06:01:26;;;;;;;4.00;1.67;;;;;;;6.19;60.76;100982.31;4912673;29;20066;-79
2022/12/20 06:03:56;;;;;;;2.15;1.38;;;;;;;6.84;59.21;100996.56;4931666;28;20043;-82
2022/12/20 06:06:21;;;;;;;3.22;1.80;;;;;;;6.72;59.61;101000.28;4913720;29;20046;-79
2022/12/20 06:08:48;;;;;;;3.85;1.38;;;;;;;6.81;59.61;100991.44;4916816;28;20578;-78
2022/12/20 06:11:29;;;;;;;2.35;1.00;;;;;;;6.80;59.28;100985.41;4905815;28;20036;-79
2022/12/20 06:13:59;;;;;;;6.60;1.70;;;;;;;6.26;61.34;100988.22;4915317;29;20078;-79
2022/12/20 06:16:26;;;;;;;3.83;1.45;;;;;;;6.72;60.40;100989.06;4917016;29;20039;-77
2022/12/20 06:18:53;;;;;;;1.88;1.13;;;;;;;7.19;58.92;100982.75;4907849;29;20070;-80
2022/12/20 06:21:20;;;;;;;2.42;1.35;;;;;;;7.43;57.76;100988.25;4899308;29;20039;-76
2022/12/20 06:23:46;;;;;;;4.40;1.38;;;;;;;6.88;59.51;100988.66;4887432;29;20126;-78
2022/12/20 06:26:13;;;;;;;5.07;1.60;;;;;;;7.36;57.74;100989.31;4917495;29;20040;-73
2022/12/20 06:28:51;;;;;;;4.78;2.20;;;;;;;6.88;59.33;100999.06;4878756;29;20048;-79
2022/12/20 06:31:18;;;;;;;5.00;1.55;;;;;;;7.19;59.00;101003.53;4880163;29;20616;-73
2022/12/20 06:33:47;;;;;;;3.28;1.65;;;;;;;7.16;59.18;100990.63;4904523;28;20154;-77
2022/12/20 06:36:15;;;;;;;3.80;1.52;;;;;;;7.11;59.38;100989.91;4887978;29;20039;-77
2022/12/20 06:38:41;;;;;;;3.83;1.70;;;;;;;7.39;58.75;100995.25;4887712;28;20784;-73
2022/12/20 06:41:07;;;;;;;3.15;1.70;;;;;;;7.26;58.86;100981.69;4885160;29;20060;-74
2022/12/20 06:43:33;;;;;;;5.05;1.23;;;;;;;7.30;58.75;100985.09;4875399;29;20040;-73
2022/12/20 06:45:58;;;;;;;3.30;1.60;;;;;;;7.01;59.81;100998.78;4888768;29;20028;-74
2022/12/20 06:48:23;;;;;;;2.40;1.40;;;;;;;7.65;57.58;100997.25;4894214;28;20205;-74
2022/12/20 06:50:50;;;;;;;3.17;1.67;;;;;;;7.06;59.60;100989.97;4889576;29;20036;-72
2022/12/20 06:53:16;;;;;;;3.03;2.05;;;;;;;7.22;59.17;100985.28;4885045;29;20437;-71
2022/12/20 06:55:42;;;;;;;5.38;1.73;;;;;;;7.38;58.57;100979.69;4887787;29;20061;-74
2022/12/20 06:58:08;;;;;;;2.95;1.40;;;;;;;7.48;58.36;100982.03;4891359;28;20055;-73
2022/12/20 07:00:36;;;;;;;2.45;1.35;;;;;;;7.14;58.90;100988.97;4873881;29;20124;-72
2022/12/20 07:03:01;;;;;;;4.95;1.65;;;;;;;7.79;57.66;100983.88;4901127;28;20055;-71
2022/12/20 07:05:29;;;;;;;6.38;1.30;;;;;;;7.20;59.50;100984.47;4910391;29;20066;-72
2022/12/20 07:07:55;;;;;;;3.60;2.00;;;;;;;7.39;58.81;100989.22;4902910;29;20411;-71
2022/12/20 07:10:21;;;;;;;5.45;1.65;;;;;;;7.17;58.73;100988.88;4887938;29;20039;-71
2022/12/20 07:12:46;;;;;;;2.20;1.35;;;;;;;7.43;58.26;100996.06;4899082;29;20103;-71
2022/12/20 07:15:14;;;;;;;4.38;1.30;;;;;;;7.04;59.40;100996.09;4909141;29;20616;-71
2022/12/20 07:17:39;;;;;;;4.85;1.80;;;;;;;7.42;58.37;100987.41;4907543;29;20039;-72
2022/12/20 07:20:06;;;;;;;2.10;1.50;;;;;;;7.59;57.98;100986.16;4911127;29;20039;-72
2022/12/20 07:22:33;;;;;;;4.55;1.30;;;;;;;7.19;58.78;100989.69;4907022;28;20103;-70
2022/12/20 07:24:58;;;;;;;2.58;1.45;;;;;;;7.19;58.50;100989.69;4908935;29;20039;-72
2022/12/20 07:27:26;;;;;;;2.63;1.20;;;;;;;7.13;59.35;100993.28;4901381;28;20076;-70
2022/12/20 07:29:52;;;;;;;1.48;1.02;;;;;;;7.44;58.54;100992.53;4892817;29;20169;-70
2022/12/20 07:32:17;;;;;;;3.15;1.20;;;;;;;7.60;57.77;100988.72;4890777;28;20433;-70
2022/12/20 07:34:43;;;;;;;3.50;1.83;;;;;;;7.67;57.35;100990.25;4892995;29;20090;-69
2022/12/20 07:37:09;;;;;;;3.47;1.40;;;;;;;7.60;57.88;100988.72;4897679;29;20047;-70
2022/12/20 07:39:34;;;;;;;1.83;1.17;;;;;;;7.44;58.38;100987.34;4911071;29;20655;-69
2022/12/20 07:42:00;;;;;;;2.33;1.10;;;;;;;7.26;58.26;100983.44;4912278;29;20040;-70
2022/12/20 07:44:25;;;;;;;2.35;1.33;;;;;;;7.38;58.00;100977.97;4890859;29;20035;-70
2022/12/20 07:46:51;;;;;;;3.45;1.40;;;;;;;7.80;56.77;100979.50;4879690;28;20051;-71
2022/12/20 07:49:17;;;;;;;2.03;1.23;;;;;;;7.95;56.68;100986.91;4911794;29;20147;-67
2022/12/20 07:51:50;;;;;;;5.05;1.23;;;;;;;7.73;57.06;100984.03;4910821;28;20055;-69
2022/12/20 07:54:24;;;;;;;4.68;1.42;;;;;;;7.90;56.28;100975.78;4896290;29;20904;-68
2022/12/20 07:56:55;;;;;;;2.78;1.70;;;;;;;7.99;56.22;100979.88;4907784;28;20533;-71
2022/12/20 07:59:28;;;;;;;4.22;1.70;;;;;;;8.10;55.99;100977.84;4923989;28;20042;-69
2022/12/20 08:01:55;;;;;;;2.80;1.65;;;;;;;7.82;56.88;100982.94;4924316;28;20052;-70
2022/12/20 08:04:25;;;;;;;2.67;1.20;;;;;;;7.75;56.90;100982.25;4910280;29;20634;-71
2022/12/20 08:06:55;;;;;;;3.42;2.00;;;;;;;7.42;57.97;100991.72;4905343;28;20054;-68
2022/12/20 08:09:24;;;;;;;5.45;1.38;;;;;;;7.26;59.08;100986.91;4891429;29;20485;-69
2022/12/20 08:11:52;;;;;;;2.97;1.65;;;;;;;7.74;57.57;100981.41;4894064;28;20200;-68
2022/12/20 08:14:18;;;;;;;4.28;1.27;;;;;;;7.76;57.84;100983.97;4893963;29;20041;-69
2022/12/20 08:16:45;;;;;;;3.45;2.10;;;;;;;7.58;58.20;100979.22;4886622;28;20047;-68
2022/12/20 08:19:11;;;;;;;6.53;2.30;;;;;;;6.98;60.87;100985.88;4909817;29;20039;-68
2022/12/20 08:21:37;;;;;;;3.60;1.88;;;;;;;7.18;60.11;100972.41;4909694;28;20039;-69
2022/12/20 08:24:03;;;;;;;4.25;2.25;;;;;;;7.35;60.26;100979.78;4910383;29;20024;-69
2022/12/20 08:26:29;;;;;;;4.38;2.67;;;;;;;7.58;59.32;100974.00;4911519;28;20068;-69
2022/12/20 08:28:55;;;;;;;5.97;2.60;;;;;;;7.49;59.48;100970.75;4911054;29;20569;-70
2022/12/20 08:31:21;;;;;;;5.60;2.95;;;;;;;7.38;60.39;100967.56;4909868;29;20035;-70
2022/12/20 08:33:47;;;;;;;5.07;2.33;;;;;;;7.45;59.95;100969.13;4938696;28;20039;-70
2022/12/20 08:36:13;;;;;;;3.40;2.53;;;;;;;7.36;60.20;100971.09;4905328;29;20043;-70
2022/12/20 08:38:40;;;;;;;7.43;2.80;;;;;;;7.17;61.11;100971.53;4909814;29;20367;-70
2022/12/20 08:41:11;;;;;;;6.32;2.30;;;;;;;7.64;59.78;100977.31;4905521;29;20651;-70
2022/12/20 08:43:38;;;;;;;4.82;2.90;;;;;;;7.73;59.29;100968.41;4891171;29;20043;-73
2022/12/20 08:46:05;;;;;;;5.65;3.08;;;;;;;7.61;59.63;100969.59;4911017;29;20043;-70
2022/12/20 08:48:31;;;;;;;3.78;2.38;;;;;;;7.57;60.04;100972.31;4925650;28;20280;-70
2022/12/20 08:50:59;;;;;;;5.47;3.25;;;;;;;7.23;60.80;100963.59;4905482;29;20075;-71
2022/12/20 08:53:26;;;;;;;4.10;3.17;;;;;;;7.15;61.70;100970.72;4909855;28;20920;-71
2022/12/20 08:55:52;;;;;;;3.78;2.90;;;;;;;7.43;61.05;100975.25;4907629;29;20062;-73
2022/12/20 08:58:19;;;;;;;5.97;3.70;;;;;;;7.04;62.03;100977.91;4893106;29;20063;-70
2022/12/20 09:00:45;;;;;;;11.80;3.63;;;;;;;6.97;62.51;100984.16;4890973;29;20057;-72
2022/12/20 09:03:12;;;;;;;8.98;3.13;;;;;;;7.07;62.02;100972.66;4890347;29;21094;-72
2022/12/20 09:05:46;;;;;;;4.93;3.30;;;;;;;7.29;61.26;100979.03;4891344;29;20047;-72
2022/12/20 09:08:12;;;;;;;8.32;3.22;;;;;;;7.12;61.49;100968.19;4921016;28;20051;-72
2022/12/20 09:10:38;;;;;;;12.57;4.05;;;;;;;6.84;63.15;100947.19;4908564;29;20131;-72
2022/12/20 09:13:03;;;;;;;6.15;3.15;;;;;;;7.65;60.68;100942.63;4910769;28;20471;-71
2022/12/20 09:15:30;;;;;;;6.22;3.45;;;;;;;7.50;60.81;100956.00;4911234;29;20236;-72
2022/12/20 09:17:56;;;;;;;5.32;3.00;;;;;;;6.76;63.07;100962.97;4891027;29;20052;-72
2022/12/20 09:20:22;;;;;;;6.95;3.90;;;;;;;7.49;60.91;100946.50;4880091;29;20673;-71
2022/12/20 09:22:47;;;;;;;11.43;3.70;;;;;;;7.19;62.10;100948.94;4900438;29;20584;-72
2022/12/20 09:25:13;;;;;;;7.80;4.25;;;;;;;7.52;60.69;100949.84;4911514;29;20364;-72
2022/12/20 09:27:39;;;;;;;5.53;3.80;;;;;;;7.72;60.07;100951.97;4910691;28;20051;-72
2022/12/20 09:30:05;;;;;;;6.18;3.67;;;;;;;7.74;59.95;100942.38;4912869;29;20044;-72
2022/12/20 09:32:33;;;;;;;4.13;3.33;;;;;;;7.47;60.79;100935.28;4898480;28;20130;-72
2022/12/20 09:34:59;;;;;;;5.00;3.50;;;;;;;8.04;59.45;100929.38;4890562;29;20048;-70
2022/12/20 09:37:24;;;;;;;5.90;3.60;;;;;;;7.94;59.46;100935.78;4885974;28;20171;-73
2022/12/20 09:39:52;;;;;;;6.65;3.25;;;;;;;7.41;60.82;100931.06;4874308;29;20028;-72
2022/12/20 09:42:23;;;;;;;10.00;3.45;;;;;;;7.81;59.69;100929.19;4891047;28;20620;-73
2022/12/20 09:44:48;;;;;;;4.53;2.70;;;;;;;8.04;58.91;100920.72;4891143;29;20099;-73
2022/12/20 09:47:19;;;;;;;5.28;3.05;;;;;;;7.17;61.48;100922.13;4897329;28;20457;-72
2022/12/20 09:49:50;;;;;;;3.27;2.43;;;;;;;7.62;59.67;100924.47;4908392;29;20219;-72
2022/12/20 09:52:30;;;;;;;5.35;2.72;;;;;;;8.03;59.01;100922.50;4923613;28;20059;-73
2022/12/20 09:55:18;;;;;;;4.50;3.03;;;;;;;7.60;59.76;100920.22;4907966;29;20051;-73
2022/12/20 09:58:14;;;;;;;3.47;2.40;;;;;;;7.88;59.02;100912.50;4907189;28;20062;-72
2022/12/20 10:00:47;;;;;;;5.68;3.08;;;;;;;7.94;58.97;100913.19;4923669;28;20043;-73
2022/12/20 10:03:21;;;;;;;5.80;2.15;;;;;;;7.74;59.14;100908.53;4892296;29;20890;-73
2022/12/20 10:06:05;;;;;;;3.53;2.05;;;;;;;7.80;58.93;100902.34;4889870;29;20067;-72
2022/12/20 10:08:49;;;;;;;3.30;1.90;;;;;;;7.92;58.21;100901.97;4906718;29;20043;-71
2022/12/20 10:11:33;;;;;;;3.50;1.70;;;;;;;7.74;58.70;100898.13;4911469;29;20071;-73
2022/12/20 10:14:17;;;;;;;3.05;1.48;;;;;;;8.41;56.72;100896.22;4888525;29;20104;-73
2022/12/20 10:16:49;;;;;;;3.70;2.03;;;;;;;8.16;57.46;100891.75;4885308;29;20467;-73
2022/12/20 10:19:30;;;;;;;4.70;1.48;;;;;;;8.49;56.61;100887.25;4892697;29;20047;-72
2022/12/20 10:22:19;;;;;;;2.70;1.50;;;;;;;8.52;56.24;100892.38;4904765;28;20643;-73
2022/12/20 10:24:55;;;;;;;3.83;1.88;;;;;;;8.07;57.15;100885.06;4890316;29;20035;-72
2022/12/20 10:27:21;;;;;;;10.70;2.40;;;;;;;8.64;55.70;100879.88;4889467;29;20051;-73
2022/12/20 10:29:49;;;;;;;4.60;1.95;;;;;;;8.72;55.25;100880.53;4890394;29;20522;-72
2022/12/20 10:32:21;;;;;;;6.13;1.42;;;;;;;8.27;56.24;100879.28;4905602;29;20060;-72
2022/12/20 10:34:56;;;;;;;6.88;1.40;;;;;;;8.36;55.96;100883.34;4887473;29;20095;-73
2022/12/20 10:37:21;;;;;;;5.43;2.05;;;;;;;8.61;55.06;100879.97;4896862;28;20067;-73
2022/12/20 10:39:52;;;;;;;2.90;1.00;;;;;;;7.96;56.72;100887.13;4907773;29;20489;-73
2022/12/20 10:42:42;;;;;;;2.40;0.88;;;;;;;7.72;56.78;100884.31;4901714;28;20044;-72
2022/12/20 10:45:22;;;;;;;2.55;1.10;;;;;;;8.00;56.71;100872.25;4888979;29;20155;-73
2022/12/20 10:47:50;;;;;;;4.90;1.67;;;;;;;8.06;56.23;100861.69;4898970;29;20036;-73
2022/12/20 10:50:17;;;;;;;8.20;1.75;;;;;;;8.18;55.95;100860.44;4908009;29;20308;-72
2022/12/20 10:52:44;;;;;;;2.50;1.45;;;;;;;8.28;55.21;100865.34;4905796;28;20537;-73
2022/12/20 10:55:42;;;;;;;3.30;1.30;;;;;;;8.63;54.11;100857.31;4907786;29;20192;-73
2022/12/20 10:58:13;;;;;;;2.70;1.05;;;;;;;8.06;56.31;100854.72;4878572;29;20055;-73
2022/12/20 11:00:40;;;;;;;4.20;1.58;;;;;;;7.58;57.73;100855.25;4906483;29;20045;-72
2022/12/20 11:03:16;;;;;;;2.83;1.00;;;;;;;7.89;57.01;100843.94;4906879;29;20715;-73
2022/12/20 11:06:03;;;;;;;4.88;1.98;;;;;;;8.41;55.37;100844.97;4910964;29;20042;-72
2022/12/20 11:08:31;;;;;;;2.42;0.98;;;;;;;8.51;54.97;100835.97;4923819;28;20048;-73
2022/12/20 11:11:15;;;;;;;2.65;1.42;;;;;;;8.24;56.14;100852.47;4892469;29;20071;-73
2022/12/20 11:13:42;;;;;;;2.53;1.30;;;;;;;8.15;56.21;100846.63;4892952;29;20059;-73
2022/12/20 11:16:32;;;;;;;3.28;1.33;;;;;;;7.79;56.51;100845.97;4894107;29;20051;-73
2022/12/20 11:19:22;;;;;;;2.17;1.35;;;;;;;7.77;56.52;100839.09;4905182;29;20040;-73
2022/12/20 11:22:06;;;;;;;4.05;1.48;;;;;;;8.70;54.59;100848.41;4893823;28;20051;-73
2022/12/20 11:24:51;;;;;;;5.10;1.17;;;;;;;8.25;55.26;100841.13;4912142;29;20445;-73
2022/12/20 11:27:31;;;;;;;4.43;1.50;;;;;;;8.44;54.88;100836.22;4911453;28;20047;-72
2022/12/20 11:30:19;;;;;;;3.67;1.20;;;;;;;8.58;54.60;100828.78;4909555;29;20036;-74
2022/12/20 11:33:03;;;;;;;5.50;1.52;;;;;;;8.76;53.66;100829.97;4909082;28;20107;-73
2022/12/20 11:35:47;;;;;;;3.00;0.88;;;;;;;8.17;55.60;100823.16;4908254;29;20039;-73
2022/12/20 11:38:39;;;;;;;3.80;1.40;;;;;;;8.73;54.35;100837.91;4914186;28;20095;-73
2022/12/20 11:41:16;;;;;;;7.18;0.90;;;;;;;8.23;55.34;100836.00;4912086;29;20568;-73
2022/12/20 11:44:12;;;;;;;2.05;1.00;;;;;;;8.35;55.00;100816.53;4923217;28;20039;-73
2022/12/20 11:46:57;;;;;;;7.43;1.10;;;;;;;8.33;54.99;100818.31;4879028;28;20058;-73
2022/12/20 11:49:57;;;;;;;1.73;0.90;;;;;;;8.27;55.64;100835.00;4912779;29;20039;-74
2022/12/20 11:52:37;;;;;;;6.00;2.10;;;;;;;8.36;55.54;100824.28;4926109;28;20051;-73
2022/12/20 11:55:14;;;;;;;3.08;1.42;;;;;;;8.25;56.17;100834.19;4913366;29;20122;-73
2022/12/20 11:58:05;;;;;;;4.47;1.23;;;;;;;8.39;55.62;100833.75;4901645;29;20048;-74
2022/12/20 12:00:37;;;;;;;5.40;0.90;;;;;;;8.05;56.40;100837.41;4893678;29;20087;-73
2022/12/20 12:03:13;;;;;;;1.60;1.40;;;;;;;7.87;57.11;100820.59;4893921;28;20557;-74